sensor_id;sensor_type;location;lat;lon;timestamp;temperature;humidity
31391;DHT22;18022;45.492;11.548;2022-10-23T00:01:31;15.80;99.90
31391;DHT22;18022;45.492;11.548;2022-10-23T00:04:00;15.70;99.90
31391;DHT22;18022;45.492;11.548;2022-10-23T00:06:27;15.80;99.90
31391;DHT22;18022;45.492;11.548;2022-10-23T00:08:54;15.80;99.90
31391;DHT22;18022;45.492;11.548;2022-10-23T00:11:22;15.70;99.90
31391;DHT22;18022;45.492;11.548;2022-10-23T00:13:48;15.80;99.90
31391;DHT22;18022;45.492;11.548;2022-10-23T00:16:15;15.70;99.90
31391;DHT22;18022;45.492;11.548;2022-10-23T00:18:40;15.80;99.90
31391;DHT22;18022;45.492;11.548;2022-10-23T00:21:08;15.80;99.90
31391;DHT22;18022;45.492;11.548;2022-10-23T00:23:34;15.70;99.90
31391;DHT22;18022;45.492;11.548;2022-10-23T00:26:00;15.70;99.90
31391;DHT22;18022;45.492;11.548;2022-10-23T00:28:26;15.70;99.90
31391;DHT22;18022;45.492;11.548;2022-10-23T00:30:52;15.60;99.90
31391;DHT22;18022;45.492;11.548;2022-10-23T00:33:18;15.70;99.90
31391;DHT22;18022;45.492;11.548;2022-10-23T00:35:43;15.80;99.90
31391;DHT22;18022;45.492;11.548;2022-10-23T00:38:10;15.90;99.90
31391;DHT22;18022;45.492;11.548;2022-10-23T00:40:37;15.90;99.90
31391;DHT22;18022;45.492;11.548;2022-10-23T00:43:04;15.90;99.90
31391;DHT22;18022;45.492;11.548;2022-10-23T00:45:31;15.80;99.90
31391;DHT22;18022;45.492;11.548;2022-10-23T00:48:01;15.80;99.90
31391;DHT22;18022;45.492;11.548;2022-10-23T00:50:30;15.70;99.90
31391;DHT22;18022;45.492;11.548;2022-10-23T00:52:59;15.70;99.90
31391;DHT22;18022;45.492;11.548;2022-10-23T00:55:27;15.70;99.90
31391;DHT22;18022;45.492;11.548;2022-10-23T00:57:53;15.60;99.90
31391;DHT22;18022;45.492;11.548;2022-10-23T01:00:28;15.70;99.90
31391;DHT22;18022;45.492;11.548;2022-10-23T01:02:54;15.70;99.90
31391;DHT22;18022;45.492;11.548;2022-10-23T01:05:26;15.60;99.90
31391;DHT22;18022;45.492;11.548;2022-10-23T01:08:01;15.50;99.90
31391;DHT22;18022;45.492;11.548;2022-10-23T01:10:44;15.60;99.90
31391;DHT22;18022;45.492;11.548;2022-10-23T01:13:16;15.70;99.90
31391;DHT22;18022;45.492;11.548;2022-10-23T01:16:49;15.70;99.90
31391;DHT22;18022;45.492;11.548;2022-10-23T01:19:08;15.60;99.90
31391;DHT22;18022;45.492;11.548;2022-10-23T01:24:34;15.80;99.90
31391;DHT22;18022;45.492;11.548;2022-10-23T01:32:38;15.80;99.90
31391;DHT22;18022;45.492;11.548;2022-10-23T01:35:12;15.80;99.90
31391;DHT22;18022;45.492;11.548;2022-10-23T01:37:44;15.80;99.90
31391;DHT22;18022;45.492;11.548;2022-10-23T01:43:11;15.80;99.90
31391;DHT22;18022;45.492;11.548;2022-10-23T01:45:50;15.80;99.90
31391;DHT22;18022;45.492;11.548;2022-10-23T01:48:22;15.70;99.90
31391;DHT22;18022;45.492;11.548;2022-10-23T01:50:50;15.70;99.90
31391;DHT22;18022;45.492;11.548;2022-10-23T01:53:18;15.80;99.90
31391;DHT22;18022;45.492;11.548;2022-10-23T01:55:45;15.80;99.90
31391;DHT22;18022;45.492;11.548;2022-10-23T01:58:12;15.80;99.90
31391;DHT22;18022;45.492;11.548;2022-10-23T02:00:41;15.70;99.90
31391;DHT22;18022;45.492;11.548;2022-10-23T02:03:09;15.70;99.90
31391;DHT22;18022;45.492;11.548;2022-10-23T02:05:36;15.70;99.90
31391;DHT22;18022;45.492;11.548;2022-10-23T02:08:04;15.80;99.90
31391;DHT22;18022;45.492;11.548;2022-10-23T02:10:38;15.80;99.90
31391;DHT22;18022;45.492;11.548;2022-10-23T02:13:10;15.80;99.90
31391;DHT22;18022;45.492;11.548;2022-10-23T02:15:51;15.90;99.90
31391;DHT22;18022;45.492;11.548;2022-10-23T02:24:45;15.90;99.90
31391;DHT22;18022;45.492;11.548;2022-10-23T02:27:20;16.00;99.90
31391;DHT22;18022;45.492;11.548;2022-10-23T02:29:55;16.20;99.90
31391;DHT22;18022;45.492;11.548;2022-10-23T02:32:23;16.10;99.90
31391;DHT22;18022;45.492;11.548;2022-10-23T02:34:50;16.10;99.90
31391;DHT22;18022;45.492;11.548;2022-10-23T02:37:16;16.00;99.90
31391;DHT22;18022;45.492;11.548;2022-10-23T02:39:42;16.00;99.90
31391;DHT22;18022;45.492;11.548;2022-10-23T02:47:50;15.90;99.90
31391;DHT22;18022;45.492;11.548;2022-10-23T03:01:20;16.00;99.90
31391;DHT22;18022;45.492;11.548;2022-10-23T03:04:01;16.00;99.90
31391;DHT22;18022;45.492;11.548;2022-10-23T03:06:27;16.00;99.90
31391;DHT22;18022;45.492;11.548;2022-10-23T03:08:57;16.00;99.90
31391;DHT22;18022;45.492;11.548;2022-10-23T03:11:23;16.00;99.90
31391;DHT22;18022;45.492;11.548;2022-10-23T03:13:49;15.90;99.90
31391;DHT22;18022;45.492;11.548;2022-10-23T03:16:15;16.00;99.90
31391;DHT22;18022;45.492;11.548;2022-10-23T03:18:40;16.00;99.90
31391;DHT22;18022;45.492;11.548;2022-10-23T03:21:06;16.00;99.90
31391;DHT22;18022;45.492;11.548;2022-10-23T03:23:32;15.90;99.90
31391;DHT22;18022;45.492;11.548;2022-10-23T03:25:58;16.00;99.90
31391;DHT22;18022;45.492;11.548;2022-10-23T03:28:23;16.00;99.90
31391;DHT22;18022;45.492;11.548;2022-10-23T03:30:49;15.90;99.90
31391;DHT22;18022;45.492;11.548;2022-10-23T03:33:15;16.10;99.90
31391;DHT22;18022;45.492;11.548;2022-10-23T03:35:40;16.00;99.90
31391;DHT22;18022;45.492;11.548;2022-10-23T03:38:06;16.10;99.90
31391;DHT22;18022;45.492;11.548;2022-10-23T03:40:32;16.10;99.90
31391;DHT22;18022;45.492;11.548;2022-10-23T03:42:57;16.00;99.90
31391;DHT22;18022;45.492;11.548;2022-10-23T03:45:23;16.10;99.90
31391;DHT22;18022;45.492;11.548;2022-10-23T03:47:49;16.10;99.90
31391;DHT22;18022;45.492;11.548;2022-10-23T03:50:17;16.00;99.90
31391;DHT22;18022;45.492;11.548;2022-10-23T03:52:43;16.00;99.90
31391;DHT22;18022;45.492;11.548;2022-10-23T03:55:09;16.00;99.90
31391;DHT22;18022;45.492;11.548;2022-10-23T03:57:34;16.00;99.90
31391;DHT22;18022;45.492;11.548;2022-10-23T04:00:00;16.00;99.90
31391;DHT22;18022;45.492;11.548;2022-10-23T04:02:26;15.90;99.90
31391;DHT22;18022;45.492;11.548;2022-10-23T04:04:52;15.90;99.90
31391;DHT22;18022;45.492;11.548;2022-10-23T04:07:18;15.90;99.90
31391;DHT22;18022;45.492;11.548;2022-10-23T04:09:44;16.00;99.90
31391;DHT22;18022;45.492;11.548;2022-10-23T04:12:09;16.10;99.90
31391;DHT22;18022;45.492;11.548;2022-10-23T04:14:35;16.10;99.90
31391;DHT22;18022;45.492;11.548;2022-10-23T04:17:00;16.10;99.90
31391;DHT22;18022;45.492;11.548;2022-10-23T04:19:26;16.00;99.90
31391;DHT22;18022;45.492;11.548;2022-10-23T04:21:52;15.90;99.90
31391;DHT22;18022;45.492;11.548;2022-10-23T04:24:17;15.90;99.90
31391;DHT22;18022;45.492;11.548;2022-10-23T04:26:43;15.80;99.90
31391;DHT22;18022;45.492;11.548;2022-10-23T04:29:09;15.90;99.90
31391;DHT22;18022;45.492;11.548;2022-10-23T04:31:34;16.00;99.90
31391;DHT22;18022;45.492;11.548;2022-10-23T04:34:00;16.00;99.90
31391;DHT22;18022;45.492;11.548;2022-10-23T04:36:26;16.00;99.90
31391;DHT22;18022;45.492;11.548;2022-10-23T04:38:51;16.00;99.90
31391;DHT22;18022;45.492;11.548;2022-10-23T04:41:17;16.00;99.90
31391;DHT22;18022;45.492;11.548;2022-10-23T04:43:43;16.00;99.90
31391;DHT22;18022;45.492;11.548;2022-10-23T04:46:09;16.00;99.90
31391;DHT22;18022;45.492;11.548;2022-10-23T04:48:34;16.00;99.90
31391;DHT22;18022;45.492;11.548;2022-10-23T04:51:03;16.00;99.90
31391;DHT22;18022;45.492;11.548;2022-10-23T04:53:30;15.90;99.90
31391;DHT22;18022;45.492;11.548;2022-10-23T04:55:57;15.90;99.90
31391;DHT22;18022;45.492;11.548;2022-10-23T04:58:24;15.90;99.90
31391;DHT22;18022;45.492;11.548;2022-10-23T05:00:50;15.90;99.90
31391;DHT22;18022;45.492;11.548;2022-10-23T05:03:17;15.80;99.90
31391;DHT22;18022;45.492;11.548;2022-10-23T05:05:43;15.80;99.90
31391;DHT22;18022;45.492;11.548;2022-10-23T05:08:09;15.80;99.90
31391;DHT22;18022;45.492;11.548;2022-10-23T05:10:35;15.70;99.90
31391;DHT22;18022;45.492;11.548;2022-10-23T05:13:02;15.70;99.90
31391;DHT22;18022;45.492;11.548;2022-10-23T05:15:28;15.80;99.90
31391;DHT22;18022;45.492;11.548;2022-10-23T05:17:57;15.80;99.90
31391;DHT22;18022;45.492;11.548;2022-10-23T05:20:27;15.80;99.90
31391;DHT22;18022;45.492;11.548;2022-10-23T05:22:55;15.80;99.90
31391;DHT22;18022;45.492;11.548;2022-10-23T05:25:21;15.80;99.90
31391;DHT22;18022;45.492;11.548;2022-10-23T05:27:47;15.90;99.90
31391;DHT22;18022;45.492;11.548;2022-10-23T05:30:13;15.80;99.90
31391;DHT22;18022;45.492;11.548;2022-10-23T05:32:39;15.80;99.90
31391;DHT22;18022;45.492;11.548;2022-10-23T05:35:07;15.90;99.90
31391;DHT22;18022;45.492;11.548;2022-10-23T05:37:36;15.80;99.90
31391;DHT22;18022;45.492;11.548;2022-10-23T05:40:03;15.80;99.90
31391;DHT22;18022;45.492;11.548;2022-10-23T05:42:29;15.80;99.90
31391;DHT22;18022;45.492;11.548;2022-10-23T05:44:54;15.80;99.90
31391;DHT22;18022;45.492;11.548;2022-10-23T05:47:20;15.80;99.90
31391;DHT22;18022;45.492;11.548;2022-10-23T05:49:45;15.70;99.90
31391;DHT22;18022;45.492;11.548;2022-10-23T05:52:11;15.70;99.90
31391;DHT22;18022;45.492;11.548;2022-10-23T05:54:37;15.70;99.90
31391;DHT22;18022;45.492;11.548;2022-10-23T05:57:03;15.80;99.90
31391;DHT22;18022;45.492;11.548;2022-10-23T05:59:28;15.80;99.90
31391;DHT22;18022;45.492;11.548;2022-10-23T06:01:54;15.80;99.90
31391;DHT22;18022;45.492;11.548;2022-10-23T06:04:20;15.80;99.90
31391;DHT22;18022;45.492;11.548;2022-10-23T06:06:46;15.80;99.90
31391;DHT22;18022;45.492;11.548;2022-10-23T06:09:12;15.90;99.90
31391;DHT22;18022;45.492;11.548;2022-10-23T06:11:37;16.00;99.90
31391;DHT22;18022;45.492;11.548;2022-10-23T06:14:03;15.90;99.90
31391;DHT22;18022;45.492;11.548;2022-10-23T06:16:29;15.90;99.90
31391;DHT22;18022;45.492;11.548;2022-10-23T06:18:54;16.00;99.90
31391;DHT22;18022;45.492;11.548;2022-10-23T06:21:21;15.90;99.90
31391;DHT22;18022;45.492;11.548;2022-10-23T06:23:47;15.90;99.90
31391;DHT22;18022;45.492;11.548;2022-10-23T06:26:15;15.80;99.90
31391;DHT22;18022;45.492;11.548;2022-10-23T06:28:41;15.70;99.90
31391;DHT22;18022;45.492;11.548;2022-10-23T06:31:09;15.80;99.90
31391;DHT22;18022;45.492;11.548;2022-10-23T06:33:35;15.70;99.90
31391;DHT22;18022;45.492;11.548;2022-10-23T06:36:01;15.70;99.90
31391;DHT22;18022;45.492;11.548;2022-10-23T06:38:28;15.70;99.90
31391;DHT22;18022;45.492;11.548;2022-10-23T06:40:54;15.70;99.90
31391;DHT22;18022;45.492;11.548;2022-10-23T06:43:21;15.70;99.90
31391;DHT22;18022;45.492;11.548;2022-10-23T06:45:46;15.80;99.90
31391;DHT22;18022;45.492;11.548;2022-10-23T06:48:12;15.80;99.90
31391;DHT22;18022;45.492;11.548;2022-10-23T06:50:38;15.90;99.90
31391;DHT22;18022;45.492;11.548;2022-10-23T06:53:05;16.00;99.90
31391;DHT22;18022;45.492;11.548;2022-10-23T06:55:31;16.00;99.90
31391;DHT22;18022;45.492;11.548;2022-10-23T06:57:57;16.00;99.90
31391;DHT22;18022;45.492;11.548;2022-10-23T07:00:23;16.10;99.90
31391;DHT22;18022;45.492;11.548;2022-10-23T07:02:50;16.20;99.90
31391;DHT22;18022;45.492;11.548;2022-10-23T07:05:17;16.20;99.90
31391;DHT22;18022;45.492;11.548;2022-10-23T07:07:43;16.30;99.90
31391;DHT22;18022;45.492;11.548;2022-10-23T07:10:08;16.30;99.90
31391;DHT22;18022;45.492;11.548;2022-10-23T07:12:34;16.40;99.90
31391;DHT22;18022;45.492;11.548;2022-10-23T07:15:00;16.40;99.90
31391;DHT22;18022;45.492;11.548;2022-10-23T07:17:28;16.50;99.90
31391;DHT22;18022;45.492;11.548;2022-10-23T07:19:53;16.50;99.90
31391;DHT22;18022;45.492;11.548;2022-10-23T07:22:19;16.60;99.90
31391;DHT22;18022;45.492;11.548;2022-10-23T07:24:44;16.70;99.90
31391;DHT22;18022;45.492;11.548;2022-10-23T07:27:10;16.70;99.90
31391;DHT22;18022;45.492;11.548;2022-10-23T07:29:36;16.70;99.90
31391;DHT22;18022;45.492;11.548;2022-10-23T07:32:02;16.70;99.90
31391;DHT22;18022;45.492;11.548;2022-10-23T07:34:29;16.70;99.90
31391;DHT22;18022;45.492;11.548;2022-10-23T07:36:56;16.80;99.90
31391;DHT22;18022;45.492;11.548;2022-10-23T07:39:22;17.00;99.90
31391;DHT22;18022;45.492;11.548;2022-10-23T07:41:48;17.00;99.90
31391;DHT22;18022;45.492;11.548;2022-10-23T07:44:14;17.10;99.90
31391;DHT22;18022;45.492;11.548;2022-10-23T07:46:40;17.20;99.90
31391;DHT22;18022;45.492;11.548;2022-10-23T07:49:05;17.20;99.90
31391;DHT22;18022;45.492;11.548;2022-10-23T07:51:31;17.30;99.90
31391;DHT22;18022;45.492;11.548;2022-10-23T07:53:58;17.30;99.90
31391;DHT22;18022;45.492;11.548;2022-10-23T07:56:26;17.40;99.90
31391;DHT22;18022;45.492;11.548;2022-10-23T07:58:54;17.50;99.90
31391;DHT22;18022;45.492;11.548;2022-10-23T08:01:33;17.60;99.90
31391;DHT22;18022;45.492;11.548;2022-10-23T08:04:01;17.70;99.90
31391;DHT22;18022;45.492;11.548;2022-10-23T08:06:27;17.80;99.90
31391;DHT22;18022;45.492;11.548;2022-10-23T08:08:53;17.80;99.90
31391;DHT22;18022;45.492;11.548;2022-10-23T08:11:22;17.90;99.90
31391;DHT22;18022;45.492;11.548;2022-10-23T08:13:54;17.90;99.90
31391;DHT22;18022;45.492;11.548;2022-10-23T08:16:21;18.00;99.90
31391;DHT22;18022;45.492;11.548;2022-10-23T08:18:48;17.90;99.90
31391;DHT22;18022;45.492;11.548;2022-10-23T08:21:14;17.80;99.90
31391;DHT22;18022;45.492;11.548;2022-10-23T08:23:40;17.80;99.90
31391;DHT22;18022;45.492;11.548;2022-10-23T08:26:07;17.80;99.90
31391;DHT22;18022;45.492;11.548;2022-10-23T08:28:33;17.90;99.90
31391;DHT22;18022;45.492;11.548;2022-10-23T08:31:09;17.90;99.90
31391;DHT22;18022;45.492;11.548;2022-10-23T08:33:35;18.00;99.90
31391;DHT22;18022;45.492;11.548;2022-10-23T08:36:01;18.10;99.90
31391;DHT22;18022;45.492;11.548;2022-10-23T08:38:27;18.10;99.90
31391;DHT22;18022;45.492;11.548;2022-10-23T08:40:53;18.20;99.90
31391;DHT22;18022;45.492;11.548;2022-10-23T08:43:42;18.30;99.90
31391;DHT22;18022;45.492;11.548;2022-10-23T08:46:14;18.30;99.90
31391;DHT22;18022;45.492;11.548;2022-10-23T08:48:46;18.30;99.90
31391;DHT22;18022;45.492;11.548;2022-10-23T08:51:17;18.40;99.90
31391;DHT22;18022;45.492;11.548;2022-10-23T08:53:56;18.40;99.90
31391;DHT22;18022;45.492;11.548;2022-10-23T08:56:32;18.40;99.90
31391;DHT22;18022;45.492;11.548;2022-10-23T09:01:49;18.70;99.90
31391;DHT22;18022;45.492;11.548;2022-10-23T09:04:16;18.60;99.90
31391;DHT22;18022;45.492;11.548;2022-10-23T09:12:35;18.60;99.90
31391;DHT22;18022;45.492;11.548;2022-10-23T09:15:09;18.70;99.90
31391;DHT22;18022;45.492;11.548;2022-10-23T09:17:40;18.90;99.90
31391;DHT22;18022;45.492;11.548;2022-10-23T09:20:15;18.90;99.90
31391;DHT22;18022;45.492;11.548;2022-10-23T09:22:43;19.00;99.90
31391;DHT22;18022;45.492;11.548;2022-10-23T09:25:14;19.10;99.90
31391;DHT22;18022;45.492;11.548;2022-10-23T09:27:52;19.10;99.90
31391;DHT22;18022;45.492;11.548;2022-10-23T09:30:37;19.00;99.90
31391;DHT22;18022;45.492;11.548;2022-10-23T09:33:21;19.10;99.90
31391;DHT22;18022;45.492;11.548;2022-10-23T09:36:07;19.20;99.90
31391;DHT22;18022;45.492;11.548;2022-10-23T09:38:47;19.30;99.90
31391;DHT22;18022;45.492;11.548;2022-10-23T09:41:21;19.50;99.90
31391;DHT22;18022;45.492;11.548;2022-10-23T09:46:41;19.50;99.90
31391;DHT22;18022;45.492;11.548;2022-10-23T09:49:23;19.40;99.90
31391;DHT22;18022;45.492;11.548;2022-10-23T09:51:58;19.60;99.90
31391;DHT22;18022;45.492;11.548;2022-10-23T09:54:27;19.60;99.90
31391;DHT22;18022;45.492;11.548;2022-10-23T09:56:54;19.70;99.90
31391;DHT22;18022;45.492;11.548;2022-10-23T09:59:27;19.60;99.90
31391;DHT22;18022;45.492;11.548;2022-10-23T10:01:57;19.70;99.90
31391;DHT22;18022;45.492;11.548;2022-10-23T10:04:37;19.60;99.90
31391;DHT22;18022;45.492;11.548;2022-10-23T10:07:14;19.70;99.90
31391;DHT22;18022;45.492;11.548;2022-10-23T10:09:42;19.90;99.90
31391;DHT22;18022;45.492;11.548;2022-10-23T10:12:18;20.10;99.90
31391;DHT22;18022;45.492;11.548;2022-10-23T10:15:03;20.10;99.90
31391;DHT22;18022;45.492;11.548;2022-10-23T10:17:42;20.10;99.90
31391;DHT22;18022;45.492;11.548;2022-10-23T10:20:34;20.30;99.90
31391;DHT22;18022;45.492;11.548;2022-10-23T10:26:01;20.60;99.90
31391;DHT22;18022;45.492;11.548;2022-10-23T10:34:13;20.60;99.90
31391;DHT22;18022;45.492;11.548;2022-10-23T10:36:54;20.90;99.90
31391;DHT22;18022;45.492;11.548;2022-10-23T10:52:24;21.00;99.90
31391;DHT22;18022;45.492;11.548;2022-10-23T10:55:14;21.20;99.90
31391;DHT22;18022;45.492;11.548;2022-10-23T10:57:51;21.30;99.90
31391;DHT22;18022;45.492;11.548;2022-10-23T11:00:21;21.40;99.90
31391;DHT22;18022;45.492;11.548;2022-10-23T11:05:26;21.20;99.90
31391;DHT22;18022;45.492;11.548;2022-10-23T11:08:18;21.20;99.90
31391;DHT22;18022;45.492;11.548;2022-10-23T11:10:50;21.20;99.90
31391;DHT22;18022;45.492;11.548;2022-10-23T11:13:34;21.30;99.90
31391;DHT22;18022;45.492;11.548;2022-10-23T11:16:07;21.30;99.90
31391;DHT22;18022;45.492;11.548;2022-10-23T11:18:35;21.30;99.90
31391;DHT22;18022;45.492;11.548;2022-10-23T11:21:25;21.40;99.90
31391;DHT22;18022;45.492;11.548;2022-10-23T11:32:17;21.10;99.90
31391;DHT22;18022;45.492;11.548;2022-10-23T11:37:23;21.30;99.90
31391;DHT22;18022;45.492;11.548;2022-10-23T11:45:23;21.30;99.90
31391;DHT22;18022;45.492;11.548;2022-10-23T11:50:30;21.70;99.90
31391;DHT22;18022;45.492;11.548;2022-10-23T11:53:03;21.80;99.90
31391;DHT22;18022;45.492;11.548;2022-10-23T11:55:32;21.80;99.90
31391;DHT22;18022;45.492;11.548;2022-10-23T12:00:34;21.80;99.90
31391;DHT22;18022;45.492;11.548;2022-10-23T12:03:03;21.80;99.90
31391;DHT22;18022;45.492;11.548;2022-10-23T12:07:58;21.60;99.90
31391;DHT22;18022;45.492;11.548;2022-10-23T12:10:45;21.70;99.90
31391;DHT22;18022;45.492;11.548;2022-10-23T12:16:01;21.80;99.90
31391;DHT22;18022;45.492;11.548;2022-10-23T12:18:27;21.90;99.90
31391;DHT22;18022;45.492;11.548;2022-10-23T12:21:02;22.00;99.90
31391;DHT22;18022;45.492;11.548;2022-10-23T12:28:59;21.80;99.90
31391;DHT22;18022;45.492;11.548;2022-10-23T12:31:54;21.80;99.90
31391;DHT22;18022;45.492;11.548;2022-10-23T12:39:58;21.80;99.90
31391;DHT22;18022;45.492;11.548;2022-10-23T12:42:28;21.90;99.90
31391;DHT22;18022;45.492;11.548;2022-10-23T12:47:27;22.10;99.90
31391;DHT22;18022;45.492;11.548;2022-10-23T12:49:53;22.20;99.90
31391;DHT22;18022;45.492;11.548;2022-10-23T12:52:20;22.30;99.90
31391;DHT22;18022;45.492;11.548;2022-10-23T12:54:49;22.40;99.90
31391;DHT22;18022;45.492;11.548;2022-10-23T12:57:22;22.40;99.90
31391;DHT22;18022;45.492;11.548;2022-10-23T13:00:14;22.60;99.90
31391;DHT22;18022;45.492;11.548;2022-10-23T13:02:40;22.50;99.90
31391;DHT22;18022;45.492;11.548;2022-10-23T13:05:09;22.50;99.90
31391;DHT22;18022;45.492;11.548;2022-10-23T13:07:42;22.50;99.90
31391;DHT22;18022;45.492;11.548;2022-10-23T13:10:17;22.70;99.90
31391;DHT22;18022;45.492;11.548;2022-10-23T13:13:01;22.60;99.90
31391;DHT22;18022;45.492;11.548;2022-10-23T13:15:37;22.60;99.90
31391;DHT22;18022;45.492;11.548;2022-10-23T13:18:05;22.60;99.90
31391;DHT22;18022;45.492;11.548;2022-10-23T13:20:36;22.60;99.90
31391;DHT22;18022;45.492;11.548;2022-10-23T13:23:30;22.70;99.90
31391;DHT22;18022;45.492;11.548;2022-10-23T13:28:45;22.70;99.90
31391;DHT22;18022;45.492;11.548;2022-10-23T13:33:42;22.50;99.90
31391;DHT22;18022;45.492;11.548;2022-10-23T13:38:41;22.40;99.90
31391;DHT22;18022;45.492;11.548;2022-10-23T13:41:16;22.30;99.90
31391;DHT22;18022;45.492;11.548;2022-10-23T13:43:44;22.10;99.90
31391;DHT22;18022;45.492;11.548;2022-10-23T13:46:13;22.00;99.90
31391;DHT22;18022;45.492;11.548;2022-10-23T13:48:39;22.00;99.90
31391;DHT22;18022;45.492;11.548;2022-10-23T13:51:14;22.00;99.90
31391;DHT22;18022;45.492;11.548;2022-10-23T13:53:40;21.90;99.90
31391;DHT22;18022;45.492;11.548;2022-10-23T13:56:08;21.90;99.90
31391;DHT22;18022;45.492;11.548;2022-10-23T13:58:34;21.80;99.90
31391;DHT22;18022;45.492;11.548;2022-10-23T14:01:00;21.70;99.90
31391;DHT22;18022;45.492;11.548;2022-10-23T14:03:26;21.70;99.90
31391;DHT22;18022;45.492;11.548;2022-10-23T14:05:52;21.60;99.90
31391;DHT22;18022;45.492;11.548;2022-10-23T14:08:18;21.70;99.90
31391;DHT22;18022;45.492;11.548;2022-10-23T14:10:44;21.70;99.90
31391;DHT22;18022;45.492;11.548;2022-10-23T14:13:10;21.60;99.90
31391;DHT22;18022;45.492;11.548;2022-10-23T14:15:36;21.60;99.90
31391;DHT22;18022;45.492;11.548;2022-10-23T14:18:01;21.50;99.90
31391;DHT22;18022;45.492;11.548;2022-10-23T14:20:27;21.40;99.90
31391;DHT22;18022;45.492;11.548;2022-10-23T14:22:53;21.40;99.90
31391;DHT22;18022;45.492;11.548;2022-10-23T14:25:19;21.40;99.90
31391;DHT22;18022;45.492;11.548;2022-10-23T14:27:44;21.40;99.90
31391;DHT22;18022;45.492;11.548;2022-10-23T14:30:10;21.40;99.90
31391;DHT22;18022;45.492;11.548;2022-10-23T14:32:36;21.40;99.90
31391;DHT22;18022;45.492;11.548;2022-10-23T14:35:02;21.40;99.90
31391;DHT22;18022;45.492;11.548;2022-10-23T14:37:32;21.30;99.90
31391;DHT22;18022;45.492;11.548;2022-10-23T14:39:58;21.30;99.90
31391;DHT22;18022;45.492;11.548;2022-10-23T14:42:24;21.30;99.90
31391;DHT22;18022;45.492;11.548;2022-10-23T14:44:51;21.30;99.90
31391;DHT22;18022;45.492;11.548;2022-10-23T14:47:18;21.20;99.90
31391;DHT22;18022;45.492;11.548;2022-10-23T14:49:47;21.20;99.90
31391;DHT22;18022;45.492;11.548;2022-10-23T14:52:15;21.20;99.90
31391;DHT22;18022;45.492;11.548;2022-10-23T14:54:40;21.20;99.90
31391;DHT22;18022;45.492;11.548;2022-10-23T14:57:06;21.10;99.90
31391;DHT22;18022;45.492;11.548;2022-10-23T14:59:32;21.20;99.90
31391;DHT22;18022;45.492;11.548;2022-10-23T15:01:58;21.20;99.90
31391;DHT22;18022;45.492;11.548;2022-10-23T15:04:24;21.10;99.90
31391;DHT22;18022;45.492;11.548;2022-10-23T15:06:50;21.10;99.90
31391;DHT22;18022;45.492;11.548;2022-10-23T15:09:16;21.00;99.90
31391;DHT22;18022;45.492;11.548;2022-10-23T15:11:44;21.00;99.90
31391;DHT22;18022;45.492;11.548;2022-10-23T15:14:10;21.00;99.90
31391;DHT22;18022;45.492;11.548;2022-10-23T15:16:35;21.10;99.90
31391;DHT22;18022;45.492;11.548;2022-10-23T15:19:09;21.00;99.90
31391;DHT22;18022;45.492;11.548;2022-10-23T15:21:35;21.00;99.90
31391;DHT22;18022;45.492;11.548;2022-10-23T15:24:01;20.90;99.90
31391;DHT22;18022;45.492;11.548;2022-10-23T15:26:26;20.90;99.90
31391;DHT22;18022;45.492;11.548;2022-10-23T15:28:53;20.90;99.90
31391;DHT22;18022;45.492;11.548;2022-10-23T15:33:58;20.90;99.90
31391;DHT22;18022;45.492;11.548;2022-10-23T15:36:25;20.80;99.90
31391;DHT22;18022;45.492;11.548;2022-10-23T15:38:50;20.80;99.90
31391;DHT22;18022;45.492;11.548;2022-10-23T15:41:22;20.80;99.90
31391;DHT22;18022;45.492;11.548;2022-10-23T15:43:50;20.80;99.90
31391;DHT22;18022;45.492;11.548;2022-10-23T15:46:16;20.80;99.90
31391;DHT22;18022;45.492;11.548;2022-10-23T15:48:41;20.80;99.90
31391;DHT22;18022;45.492;11.548;2022-10-23T15:51:07;20.80;99.90
31391;DHT22;18022;45.492;11.548;2022-10-23T15:53:34;20.70;99.90
31391;DHT22;18022;45.492;11.548;2022-10-23T15:55:59;20.60;99.90
31391;DHT22;18022;45.492;11.548;2022-10-23T15:58:25;20.50;99.90
31391;DHT22;18022;45.492;11.548;2022-10-23T16:00:51;20.40;99.90
31391;DHT22;18022;45.492;11.548;2022-10-23T16:03:17;20.30;99.90
31391;DHT22;18022;45.492;11.548;2022-10-23T16:05:43;20.30;99.90
31391;DHT22;18022;45.492;11.548;2022-10-23T16:08:08;20.20;99.90
31391;DHT22;18022;45.492;11.548;2022-10-23T16:10:39;20.20;99.90
31391;DHT22;18022;45.492;11.548;2022-10-23T16:13:04;20.10;99.90
31391;DHT22;18022;45.492;11.548;2022-10-23T16:15:30;20.10;99.90
31391;DHT22;18022;45.492;11.548;2022-10-23T16:17:55;20.00;99.90
31391;DHT22;18022;45.492;11.548;2022-10-23T16:20:21;20.00;99.90
31391;DHT22;18022;45.492;11.548;2022-10-23T16:22:47;19.90;99.90
31391;DHT22;18022;45.492;11.548;2022-10-23T16:25:13;19.80;99.90
31391;DHT22;18022;45.492;11.548;2022-10-23T16:27:39;19.70;99.90
31391;DHT22;18022;45.492;11.548;2022-10-23T16:30:05;19.70;99.90
31391;DHT22;18022;45.492;11.548;2022-10-23T16:32:34;19.60;99.90
31391;DHT22;18022;45.492;11.548;2022-10-23T16:34:59;19.50;99.90
31391;DHT22;18022;45.492;11.548;2022-10-23T16:37:25;19.50;99.90
31391;DHT22;18022;45.492;11.548;2022-10-23T16:39:51;19.40;99.90
31391;DHT22;18022;45.492;11.548;2022-10-23T16:42:16;19.40;99.90
31391;DHT22;18022;45.492;11.548;2022-10-23T16:44:42;19.30;99.90
31391;DHT22;18022;45.492;11.548;2022-10-23T16:47:08;19.40;99.90
31391;DHT22;18022;45.492;11.548;2022-10-23T16:49:34;19.30;99.90
31391;DHT22;18022;45.492;11.548;2022-10-23T16:52:00;19.20;99.90
31391;DHT22;18022;45.492;11.548;2022-10-23T16:54:25;19.10;99.90
31391;DHT22;18022;45.492;11.548;2022-10-23T16:56:51;19.00;99.90
31391;DHT22;18022;45.492;11.548;2022-10-23T16:59:17;19.00;99.90
31391;DHT22;18022;45.492;11.548;2022-10-23T17:01:43;18.90;99.90
31391;DHT22;18022;45.492;11.548;2022-10-23T17:04:09;19.00;99.90
31391;DHT22;18022;45.492;11.548;2022-10-23T17:06:35;19.00;99.90
31391;DHT22;18022;45.492;11.548;2022-10-23T17:09:02;19.00;99.90
31391;DHT22;18022;45.492;11.548;2022-10-23T17:11:33;19.00;99.90
31391;DHT22;18022;45.492;11.548;2022-10-23T17:14:06;18.90;99.90
31391;DHT22;18022;45.492;11.548;2022-10-23T17:16:41;18.90;99.90
31391;DHT22;18022;45.492;11.548;2022-10-23T17:19:09;18.80;99.90
31391;DHT22;18022;45.492;11.548;2022-10-23T17:21:37;18.80;99.90
31391;DHT22;18022;45.492;11.548;2022-10-23T17:24:04;18.90;99.90
31391;DHT22;18022;45.492;11.548;2022-10-23T17:26:30;19.00;99.90